createdAt,value
2022-12-29T00:00:15.218Z,7.55
2022-12-29T00:04:43.234Z,7.54
2022-12-29T00:08:50.954Z,7.52
2022-12-29T00:13:16.329Z,7.50
2022-12-29T00:17:24.284Z,7.49
2022-12-29T00:21:50.071Z,7.48
2022-12-29T00:26:17.258Z,7.47
2022-12-29T00:30:44.985Z,7.46
2022-12-29T00:35:10.993Z,7.46
2022-12-29T00:39:47.211Z,7.45
2022-12-29T00:44:07.528Z,7.43
2022-12-29T00:48:36.480Z,7.41
2022-12-29T00:52:44.785Z,7.45
2022-12-29T00:56:56.454Z,7.51
2022-12-29T01:01:08.999Z,7.56
2022-12-29T01:05:16.462Z,7.60
2022-12-29T01:09:44.084Z,7.62
2022-12-29T01:13:51.647Z,7.61
2022-12-29T01:17:58.998Z,7.60
2022-12-29T01:22:07.199Z,7.58
2022-12-29T01:26:16.812Z,7.55
2022-12-29T01:30:24.535Z,7.53
2022-12-29T01:34:32.544Z,7.49
2022-12-29T01:38:41.108Z,7.44
2022-12-29T01:42:50.114Z,7.38
2022-12-29T01:46:58.126Z,7.33
2022-12-29T01:51:07.581Z,7.28
2022-12-29T01:55:16.408Z,7.22
2022-12-29T01:59:28.099Z,7.18
2022-12-29T02:03:37.570Z,7.14
2022-12-29T02:07:45.952Z,7.08
2022-12-29T02:11:54.135Z,7.09
2022-12-29T02:16:10.239Z,7.14
2022-12-29T02:20:53.038Z,7.18
2022-12-29T02:25:21.760Z,7.18
2022-12-29T02:29:51.691Z,7.17
2022-12-29T02:34:09.646Z,7.16
2022-12-29T02:38:23.541Z,7.15
2022-12-29T02:42:36.767Z,7.14
2022-12-29T02:46:49.896Z,7.13
2022-12-29T02:51:03.399Z,7.12
2022-12-29T02:55:14.019Z,7.10
2022-12-29T02:59:21.975Z,7.11
2022-12-29T03:03:41.254Z,7.11
2022-12-29T03:07:55.134Z,7.14
2022-12-29T03:12:10.073Z,7.17
2022-12-29T03:16:24.492Z,7.20
2022-12-29T03:20:41.437Z,7.24
2022-12-29T03:24:50.849Z,7.29
2022-12-29T03:28:59.301Z,7.33
2022-12-29T03:33:09.533Z,7.37
2022-12-29T03:37:19.254Z,7.42
2022-12-29T03:41:32.041Z,7.44
2022-12-29T03:45:40.108Z,7.46
2022-12-29T03:49:47.518Z,7.48
2022-12-29T03:53:55.106Z,7.48
2022-12-29T03:58:03.187Z,7.49
2022-12-29T04:02:10.666Z,7.50
2022-12-29T04:06:18.385Z,7.50
2022-12-29T04:10:26.080Z,7.50
2022-12-29T04:14:34.300Z,7.51
2022-12-29T04:18:42.227Z,7.52
2022-12-29T04:22:50.074Z,7.56
2022-12-29T04:26:57.983Z,7.61
2022-12-29T04:31:06.619Z,7.67
2022-12-29T04:35:15.989Z,7.71
2022-12-29T04:39:23.971Z,7.74
2022-12-29T04:43:31.821Z,7.76
2022-12-29T04:47:42.329Z,7.78
2022-12-29T04:51:49.860Z,7.80
2022-12-29T04:55:58.285Z,7.80
2022-12-29T05:00:07.797Z,7.80
2022-12-29T05:04:15.448Z,7.81
2022-12-29T05:08:27.766Z,7.82
2022-12-29T05:12:41.656Z,7.83
2022-12-29T05:16:49.724Z,7.83
2022-12-29T05:20:57.242Z,7.83
2022-12-29T05:25:04.862Z,7.83
2022-12-29T05:29:12.832Z,7.81
2022-12-29T05:33:20.497Z,7.77
2022-12-29T05:37:28.551Z,7.73
2022-12-29T05:41:36.242Z,7.68
2022-12-29T05:45:43.865Z,7.65
2022-12-29T05:49:51.459Z,7.61
2022-12-29T05:53:59.019Z,7.58
2022-12-29T05:58:07.045Z,7.57
2022-12-29T06:02:15.250Z,7.56
2022-12-29T06:06:23.396Z,7.58
2022-12-29T06:10:31.161Z,7.60
2022-12-29T06:14:38.880Z,7.64
2022-12-29T06:18:46.417Z,7.69
2022-12-29T06:22:54.221Z,7.75
2022-12-29T06:27:01.828Z,7.80
2022-12-29T06:31:12.893Z,7.83
2022-12-29T06:35:21.084Z,7.85
2022-12-29T06:39:28.313Z,7.86
2022-12-29T06:43:37.257Z,7.88
2022-12-29T06:47:44.977Z,7.90
2022-12-29T06:51:52.948Z,7.92
2022-12-29T06:56:00.445Z,7.95
2022-12-29T07:00:10.850Z,7.99
2022-12-29T07:04:18.804Z,8.01
2022-12-29T07:08:26.768Z,8.03
2022-12-29T07:12:35.278Z,8.04
2022-12-29T07:16:44.731Z,8.05
2022-12-29T07:20:52.291Z,8.06
2022-12-29T07:25:00.266Z,8.06
2022-12-29T07:29:08.749Z,8.07
2022-12-29T07:33:16.338Z,8.07
2022-12-29T07:37:25.416Z,8.07
2022-12-29T07:41:32.880Z,8.07
2022-12-29T07:45:41.223Z,8.08
2022-12-29T07:49:50.558Z,8.11
2022-12-29T07:53:57.955Z,8.13
2022-12-29T07:58:05.234Z,8.14
2022-12-29T08:02:15.427Z,8.16
2022-12-29T08:06:24.259Z,8.21
2022-12-29T08:10:32.235Z,8.26
2022-12-29T08:14:40.495Z,8.31
2022-12-29T08:18:48.674Z,8.36
2022-12-29T08:22:57.002Z,8.43
2022-12-29T08:27:16.152Z,8.48
2022-12-29T08:31:28.112Z,8.53
2022-12-29T08:35:35.557Z,8.58
2022-12-29T08:39:43.202Z,8.66
2022-12-29T08:43:51.524Z,8.73
2022-12-29T08:48:00.242Z,8.81
2022-12-29T08:52:09.944Z,8.86
2022-12-29T08:56:24.968Z,8.91
2022-12-29T09:00:32.355Z,8.97
2022-12-29T09:04:39.966Z,9.05
2022-12-29T09:08:49.336Z,9.14
2022-12-29T09:12:56.605Z,9.22
2022-12-29T09:17:21.658Z,9.29
2022-12-29T09:21:30.559Z,9.35
2022-12-29T09:25:39.198Z,9.40
2022-12-29T09:29:47.100Z,9.44
2022-12-29T09:33:55.456Z,9.48
2022-12-29T09:38:03.429Z,9.50
2022-12-29T09:42:16.823Z,9.55
2022-12-29T09:46:28.779Z,9.57
2022-12-29T09:50:39.645Z,9.60
2022-12-29T09:55:00.159Z,9.62
2022-12-29T09:59:15.520Z,9.64
2022-12-29T10:03:25.333Z,9.69
2022-12-29T10:07:39.985Z,9.73
2022-12-29T10:12:00.609Z,9.78
2022-12-29T10:16:14.517Z,9.83
2022-12-29T10:20:31.887Z,9.88
2022-12-29T10:24:42.189Z,9.93
2022-12-29T10:28:53.336Z,9.99
2022-12-29T10:33:03.649Z,10.05
2022-12-29T10:37:27.477Z,10.09
2022-12-29T10:41:42.308Z,10.14
2022-12-29T10:45:50.872Z,10.18
2022-12-29T10:49:59.467Z,10.21
2022-12-29T10:54:18.104Z,10.22
2022-12-29T10:58:26.904Z,10.22
2022-12-29T11:02:56.601Z,10.22
2022-12-29T11:07:04.917Z,10.24
2022-12-29T11:11:13.591Z,10.26
2022-12-29T11:15:22.124Z,10.29
2022-12-29T11:19:36.216Z,10.35
2022-12-29T11:24:00.129Z,10.39
2022-12-29T11:28:19.366Z,10.43
2022-12-29T11:32:30.588Z,10.46
2022-12-29T11:36:39.008Z,10.49
2022-12-29T11:40:49.527Z,10.50
2022-12-29T11:44:57.413Z,10.50
2022-12-29T11:49:07.769Z,10.48
2022-12-29T11:53:23.236Z,10.45
2022-12-29T11:57:31.678Z,10.43
2022-12-29T12:01:42.065Z,10.41
2022-12-29T12:05:53.669Z,10.39
2022-12-29T12:10:07.990Z,10.37
2022-12-29T12:14:22.441Z,10.33
2022-12-29T12:18:36.469Z,10.29
2022-12-29T12:22:47.988Z,10.25
2022-12-29T12:27:03.898Z,10.20
2022-12-29T12:31:21.602Z,10.16
2022-12-29T12:35:35.152Z,10.13
2022-12-29T12:39:52.426Z,10.11
2022-12-29T12:44:07.295Z,10.10
2022-12-29T12:48:26.775Z,10.09
2022-12-29T12:52:40.689Z,10.12
2022-12-29T12:57:04.601Z,10.17
2022-12-29T13:01:24.271Z,10.21
2022-12-29T13:05:43.103Z,10.29
2022-12-29T13:10:18.579Z,10.31
2022-12-29T13:14:37.886Z,10.35
2022-12-29T13:18:51.319Z,10.37
2022-12-29T13:23:02.816Z,10.38
2022-12-29T13:27:19.142Z,10.43
2022-12-29T13:31:33.048Z,10.49
2022-12-29T13:35:55.084Z,10.53
2022-12-29T13:40:06.595Z,10.58
2022-12-29T13:44:19.557Z,10.63
2022-12-29T13:48:30.942Z,10.65
2022-12-29T13:52:42.049Z,10.62
2022-12-29T13:56:54.298Z,10.60
2022-12-29T14:01:06.502Z,10.55
2022-12-29T14:05:31.982Z,10.52
2022-12-29T14:09:47.853Z,10.48
2022-12-29T14:13:55.812Z,10.43
2022-12-29T14:18:16.061Z,10.38
2022-12-29T14:22:32.916Z,10.32
2022-12-29T14:26:41.621Z,10.24
2022-12-29T14:30:54.337Z,10.18
2022-12-29T14:35:24.392Z,10.11
2022-12-29T14:39:36.704Z,10.05
2022-12-29T14:43:44.509Z,10.00
2022-12-29T14:47:53.867Z,9.95
2022-12-29T14:52:16.062Z,9.89
2022-12-29T14:56:32.260Z,9.83
2022-12-29T15:00:40.716Z,9.77
2022-12-29T15:04:48.757Z,9.71
2022-12-29T15:09:01.413Z,9.64
2022-12-29T15:13:18.767Z,9.59
2022-12-29T15:17:31.086Z,9.53
2022-12-29T15:21:39.863Z,9.46
2022-12-29T15:25:55.709Z,9.36
2022-12-29T15:30:13.884Z,9.24
2022-12-29T15:34:25.416Z,9.12
2022-12-29T15:38:40.255Z,9.00
2022-12-29T15:42:59.759Z,8.90
2022-12-29T15:47:09.334Z,8.88
2022-12-29T15:51:23.453Z,8.87
2022-12-29T15:55:33.652Z,8.85
2022-12-29T15:59:49.527Z,8.79
2022-12-29T16:03:58.020Z,8.74
2022-12-29T16:08:22.998Z,8.72
2022-12-29T16:12:35.588Z,8.72
2022-12-29T16:16:45.485Z,8.71
2022-12-29T16:20:53.553Z,8.71
2022-12-29T16:25:05.072Z,8.72
2022-12-29T16:29:16.188Z,8.75
2022-12-29T16:33:47.001Z,8.79
2022-12-29T16:38:15.626Z,8.81
2022-12-29T16:42:51.252Z,8.83
2022-12-29T16:47:08.521Z,8.85
2022-12-29T16:51:18.660Z,8.87
2022-12-29T16:55:26.652Z,8.87
2022-12-29T16:59:38.086Z,8.87
2022-12-29T17:03:48.998Z,8.88
2022-12-29T17:08:02.013Z,8.87
2022-12-29T17:12:11.828Z,8.88
2022-12-29T17:16:19.478Z,8.87
2022-12-29T17:20:30.137Z,8.86
2022-12-29T17:24:38.568Z,8.84
2022-12-29T17:28:47.193Z,8.82
2022-12-29T17:32:58.720Z,8.79
2022-12-29T17:37:07.548Z,8.76
2022-12-29T17:41:17.391Z,8.74
2022-12-29T17:45:27.426Z,8.73
2022-12-29T17:49:35.226Z,8.73
2022-12-29T17:53:42.764Z,8.75
2022-12-29T17:57:50.442Z,8.79
2022-12-29T18:01:58.462Z,8.80
2022-12-29T18:06:08.654Z,8.82
2022-12-29T18:10:16.960Z,8.84
2022-12-29T18:14:25.605Z,8.86
2022-12-29T18:18:33.453Z,8.85
2022-12-29T18:22:41.537Z,8.83
2022-12-29T18:26:49.291Z,8.79
2022-12-29T18:30:57.635Z,8.75
2022-12-29T18:35:05.519Z,8.71
2022-12-29T18:39:14.120Z,8.69
2022-12-29T18:43:22.408Z,8.66
2022-12-29T18:47:31.118Z,8.64
2022-12-29T18:51:40.370Z,8.64
2022-12-29T18:55:48.230Z,8.65
2022-12-29T18:59:56.012Z,8.65
2022-12-29T19:04:06.351Z,8.64
2022-12-29T19:08:16.815Z,8.64
2022-12-29T19:12:29.688Z,8.64
2022-12-29T19:16:37.134Z,8.68
2022-12-29T19:20:47.387Z,8.73
2022-12-29T19:24:59.931Z,8.77
2022-12-29T19:29:14.086Z,8.78
2022-12-29T19:33:23.882Z,8.76
2022-12-29T19:37:36.437Z,8.73
2022-12-29T19:41:44.532Z,8.70
2022-12-29T19:45:53.699Z,8.66
2022-12-29T19:50:02.226Z,8.61
2022-12-29T19:54:09.701Z,8.57
2022-12-29T19:58:17.962Z,8.53
2022-12-29T20:02:27.375Z,8.48
2022-12-29T20:06:35.928Z,8.44
2022-12-29T20:10:43.469Z,8.41
2022-12-29T20:14:51.650Z,8.43
2022-12-29T20:18:59.806Z,8.48
2022-12-29T20:23:07.710Z,8.50
2022-12-29T20:27:16.309Z,8.52
2022-12-29T20:31:27.327Z,8.51
2022-12-29T20:35:35.617Z,8.48
2022-12-29T20:39:43.549Z,8.43
2022-12-29T20:43:51.403Z,8.38
2022-12-29T20:47:59.283Z,8.34
2022-12-29T20:52:07.633Z,8.28
2022-12-29T20:56:18.404Z,8.23
2022-12-29T21:00:26.541Z,8.18
2022-12-29T21:05:05.607Z,8.13
2022-12-29T21:09:03.581Z,8.13
2022-12-29T21:13:11.440Z,8.15
2022-12-29T21:17:19.363Z,8.17
2022-12-29T21:21:27.944Z,8.16
2022-12-29T21:25:38.419Z,8.12
2022-12-29T21:29:46.654Z,8.08
2022-12-29T21:33:54.931Z,8.01
2022-12-29T21:38:03.304Z,7.96
2022-12-29T21:42:11.105Z,7.91
2022-12-29T21:46:19.976Z,7.87
2022-12-29T21:50:28.879Z,7.85
2022-12-29T21:54:53.986Z,7.89
2022-12-29T21:59:23.015Z,7.97
2022-12-29T22:03:49.007Z,8.04
2022-12-29T22:08:14.402Z,8.09
2022-12-29T22:12:40.862Z,8.11
2022-12-29T22:16:48.728Z,8.13
2022-12-29T22:20:56.207Z,8.13
2022-12-29T22:25:04.325Z,8.12
2022-12-29T22:29:12.551Z,8.10
2022-12-29T22:33:20.202Z,8.09
2022-12-29T22:37:27.869Z,8.09
2022-12-29T22:41:35.735Z,8.15
2022-12-29T22:45:43.227Z,8.23
2022-12-29T22:49:50.560Z,8.29
2022-12-29T22:53:58.086Z,8.33
2022-12-29T22:58:06.794Z,8.37
2022-12-29T23:02:14.631Z,8.39
2022-12-29T23:06:22.547Z,8.41
2022-12-29T23:10:30.312Z,8.39
2022-12-29T23:14:38.594Z,8.35
2022-12-29T23:18:48.070Z,8.31
2022-12-29T23:22:55.985Z,8.28
2022-12-29T23:27:03.980Z,8.23
2022-12-29T23:31:11.612Z,8.19
2022-12-29T23:35:19.148Z,8.19
2022-12-29T23:39:27.318Z,8.21
2022-12-29T23:43:35.577Z,8.21
2022-12-29T23:47:43.239Z,8.21
2022-12-29T23:51:51.072Z,8.19
2022-12-29T23:55:59.003Z,8.16
